sensor_id;sensor_type;location;lat;lon;timestamp;P1;durP1;ratioP1;P2;durP2;ratioP2
45392;SDS011;31129;44.810;10.334;2022-07-23T00:00:53;7.32;;;4.65;;
45392;SDS011;31129;44.810;10.334;2022-07-23T00:03:18;8.63;;;4.82;;
45392;SDS011;31129;44.810;10.334;2022-07-23T00:05:46;9.60;;;4.57;;
45392;SDS011;31129;44.810;10.334;2022-07-23T00:08:12;11.15;;;4.63;;
45392;SDS011;31129;44.810;10.334;2022-07-23T00:10:38;10.52;;;5.05;;
45392;SDS011;31129;44.810;10.334;2022-07-23T00:13:03;9.98;;;4.38;;
45392;SDS011;31129;44.810;10.334;2022-07-23T00:15:29;12.10;;;5.03;;
45392;SDS011;31129;44.810;10.334;2022-07-23T00:17:54;11.65;;;5.22;;
45392;SDS011;31129;44.810;10.334;2022-07-23T00:20:20;12.70;;;4.80;;
45392;SDS011;31129;44.810;10.334;2022-07-23T00:22:49;9.95;;;5.05;;
45392;SDS011;31129;44.810;10.334;2022-07-23T00:25:16;8.85;;;5.07;;
45392;SDS011;31129;44.810;10.334;2022-07-23T00:27:44;10.93;;;5.60;;
45392;SDS011;31129;44.810;10.334;2022-07-23T00:30:10;8.88;;;4.95;;
45392;SDS011;31129;44.810;10.334;2022-07-23T00:35:16;12.82;;;5.45;;
45392;SDS011;31129;44.810;10.334;2022-07-23T00:37:41;9.95;;;5.13;;
45392;SDS011;31129;44.810;10.334;2022-07-23T00:40:07;12.18;;;5.40;;
45392;SDS011;31129;44.810;10.334;2022-07-23T00:42:34;14.10;;;5.93;;
45392;SDS011;31129;44.810;10.334;2022-07-23T00:44:59;9.13;;;5.20;;
45392;SDS011;31129;44.810;10.334;2022-07-23T00:47:25;11.75;;;5.55;;
45392;SDS011;31129;44.810;10.334;2022-07-23T00:49:51;11.20;;;5.18;;
45392;SDS011;31129;44.810;10.334;2022-07-23T00:52:16;9.60;;;5.32;;
45392;SDS011;31129;44.810;10.334;2022-07-23T00:54:42;9.88;;;5.55;;
45392;SDS011;31129;44.810;10.334;2022-07-23T00:57:08;12.23;;;5.22;;
45392;SDS011;31129;44.810;10.334;2022-07-23T00:59:34;10.10;;;5.40;;
45392;SDS011;31129;44.810;10.334;2022-07-23T01:01:59;8.70;;;6.25;;
45392;SDS011;31129;44.810;10.334;2022-07-23T01:04:25;8.30;;;4.93;;
45392;SDS011;31129;44.810;10.334;2022-07-23T01:06:50;9.18;;;4.97;;
45392;SDS011;31129;44.810;10.334;2022-07-23T01:09:16;12.77;;;5.40;;
45392;SDS011;31129;44.810;10.334;2022-07-23T01:11:46;5.90;;;4.70;;
45392;SDS011;31129;44.810;10.334;2022-07-23T01:14:12;12.18;;;5.10;;
45392;SDS011;31129;44.810;10.334;2022-07-23T01:16:40;9.40;;;5.15;;
45392;SDS011;31129;44.810;10.334;2022-07-23T01:19:07;9.60;;;5.15;;
45392;SDS011;31129;44.810;10.334;2022-07-23T01:21:34;10.77;;;4.85;;
45392;SDS011;31129;44.810;10.334;2022-07-23T01:24:01;9.88;;;5.10;;
45392;SDS011;31129;44.810;10.334;2022-07-23T01:26:27;11.55;;;4.93;;
45392;SDS011;31129;44.810;10.334;2022-07-23T01:28:53;7.57;;;4.95;;
45392;SDS011;31129;44.810;10.334;2022-07-23T01:31:18;9.35;;;5.30;;
45392;SDS011;31129;44.810;10.334;2022-07-23T01:33:45;11.38;;;4.97;;
45392;SDS011;31129;44.810;10.334;2022-07-23T01:36:10;7.75;;;5.13;;
45392;SDS011;31129;44.810;10.334;2022-07-23T01:38:36;10.88;;;5.47;;
45392;SDS011;31129;44.810;10.334;2022-07-23T01:41:01;7.65;;;4.90;;
45392;SDS011;31129;44.810;10.334;2022-07-23T01:43:29;8.90;;;4.70;;
45392;SDS011;31129;44.810;10.334;2022-07-23T01:45:55;12.70;;;5.45;;
45392;SDS011;31129;44.810;10.334;2022-07-23T01:48:22;10.25;;;4.82;;
45392;SDS011;31129;44.810;10.334;2022-07-23T01:51:08;13.52;;;5.32;;
45392;SDS011;31129;44.810;10.334;2022-07-23T01:53:41;8.98;;;5.00;;
45392;SDS011;31129;44.810;10.334;2022-07-23T01:56:06;7.63;;;4.18;;
45392;SDS011;31129;44.810;10.334;2022-07-23T01:58:32;9.27;;;3.85;;
45392;SDS011;31129;44.810;10.334;2022-07-23T02:00:58;7.70;;;4.18;;
45392;SDS011;31129;44.810;10.334;2022-07-23T02:03:27;8.65;;;4.25;;
45392;SDS011;31129;44.810;10.334;2022-07-23T02:05:53;11.02;;;4.15;;
45392;SDS011;31129;44.810;10.334;2022-07-23T02:08:23;7.93;;;4.45;;
45392;SDS011;31129;44.810;10.334;2022-07-23T02:10:49;9.32;;;4.80;;
45392;SDS011;31129;44.810;10.334;2022-07-23T02:13:16;17.30;;;4.57;;
45392;SDS011;31129;44.810;10.334;2022-07-23T02:15:42;11.00;;;4.80;;
45392;SDS011;31129;44.810;10.334;2022-07-23T02:18:08;14.63;;;5.03;;
45392;SDS011;31129;44.810;10.334;2022-07-23T02:20:33;8.95;;;4.57;;
45392;SDS011;31129;44.810;10.334;2022-07-23T02:22:59;6.85;;;4.97;;
45392;SDS011;31129;44.810;10.334;2022-07-23T02:25:25;10.32;;;4.70;;
45392;SDS011;31129;44.810;10.334;2022-07-23T02:27:56;13.52;;;4.65;;
45392;SDS011;31129;44.810;10.334;2022-07-23T02:30:21;11.82;;;4.80;;
45392;SDS011;31129;44.810;10.334;2022-07-23T02:32:47;13.70;;;4.85;;
45392;SDS011;31129;44.810;10.334;2022-07-23T02:35:12;8.13;;;4.90;;
45392;SDS011;31129;44.810;10.334;2022-07-23T02:37:38;9.98;;;5.03;;
45392;SDS011;31129;44.810;10.334;2022-07-23T02:40:03;10.70;;;4.35;;
45392;SDS011;31129;44.810;10.334;2022-07-23T02:42:31;6.18;;;4.75;;
45392;SDS011;31129;44.810;10.334;2022-07-23T02:44:56;8.55;;;4.55;;
45392;SDS011;31129;44.810;10.334;2022-07-23T02:47:22;8.48;;;4.55;;
45392;SDS011;31129;44.810;10.334;2022-07-23T02:49:47;11.13;;;4.43;;
45392;SDS011;31129;44.810;10.334;2022-07-23T02:52:13;13.05;;;4.95;;
45392;SDS011;31129;44.810;10.334;2022-07-23T02:54:40;9.13;;;4.60;;
45392;SDS011;31129;44.810;10.334;2022-07-23T02:57:05;12.15;;;5.00;;
45392;SDS011;31129;44.810;10.334;2022-07-23T02:59:31;10.32;;;4.50;;
45392;SDS011;31129;44.810;10.334;2022-07-23T03:02:00;10.90;;;4.45;;
45392;SDS011;31129;44.810;10.334;2022-07-23T03:04:26;12.85;;;4.22;;
45392;SDS011;31129;44.810;10.334;2022-07-23T03:06:52;5.60;;;4.25;;
45392;SDS011;31129;44.810;10.334;2022-07-23T03:09:17;9.55;;;4.38;;
45392;SDS011;31129;44.810;10.334;2022-07-23T03:11:43;11.98;;;4.88;;
45392;SDS011;31129;44.810;10.334;2022-07-23T03:14:08;9.82;;;4.72;;
45392;SDS011;31129;44.810;10.334;2022-07-23T03:16:38;15.27;;;4.85;;
45392;SDS011;31129;44.810;10.334;2022-07-23T03:19:04;6.88;;;4.28;;
45392;SDS011;31129;44.810;10.334;2022-07-23T03:21:29;8.10;;;4.60;;
45392;SDS011;31129;44.810;10.334;2022-07-23T03:23:54;7.18;;;4.45;;
45392;SDS011;31129;44.810;10.334;2022-07-23T03:26:23;7.97;;;4.20;;
45392;SDS011;31129;44.810;10.334;2022-07-23T03:28:51;8.20;;;4.15;;
45392;SDS011;31129;44.810;10.334;2022-07-23T03:31:18;6.97;;;4.20;;
45392;SDS011;31129;44.810;10.334;2022-07-23T03:33:43;8.73;;;4.38;;
45392;SDS011;31129;44.810;10.334;2022-07-23T03:36:09;6.80;;;3.92;;
45392;SDS011;31129;44.810;10.334;2022-07-23T03:38:38;11.02;;;4.88;;
45392;SDS011;31129;44.810;10.334;2022-07-23T03:41:03;9.30;;;4.07;;
45392;SDS011;31129;44.810;10.334;2022-07-23T03:43:29;10.70;;;4.68;;
45392;SDS011;31129;44.810;10.334;2022-07-23T03:45:54;14.80;;;4.28;;
45392;SDS011;31129;44.810;10.334;2022-07-23T03:48:20;11.10;;;3.75;;
45392;SDS011;31129;44.810;10.334;2022-07-23T03:50:45;10.65;;;4.75;;
45392;SDS011;31129;44.810;10.334;2022-07-23T03:53:11;7.47;;;5.20;;
45392;SDS011;31129;44.810;10.334;2022-07-23T03:55:36;11.88;;;4.60;;
45392;SDS011;31129;44.810;10.334;2022-07-23T03:58:02;8.80;;;4.10;;
45392;SDS011;31129;44.810;10.334;2022-07-23T04:00:28;10.63;;;4.28;;
45392;SDS011;31129;44.810;10.334;2022-07-23T04:02:53;10.95;;;4.22;;
45392;SDS011;31129;44.810;10.334;2022-07-23T04:05:19;14.90;;;4.55;;
45392;SDS011;31129;44.810;10.334;2022-07-23T04:07:48;9.55;;;4.13;;
45392;SDS011;31129;44.810;10.334;2022-07-23T04:10:14;7.20;;;3.70;;
45392;SDS011;31129;44.810;10.334;2022-07-23T04:12:40;9.25;;;4.22;;
45392;SDS011;31129;44.810;10.334;2022-07-23T04:15:06;11.65;;;4.70;;
45392;SDS011;31129;44.810;10.334;2022-07-23T04:17:33;12.43;;;4.18;;
45392;SDS011;31129;44.810;10.334;2022-07-23T04:19:58;12.40;;;4.30;;
45392;SDS011;31129;44.810;10.334;2022-07-23T04:22:29;16.48;;;4.38;;
45392;SDS011;31129;44.810;10.334;2022-07-23T04:24:55;7.45;;;4.03;;
45392;SDS011;31129;44.810;10.334;2022-07-23T04:27:21;9.63;;;4.20;;
45392;SDS011;31129;44.810;10.334;2022-07-23T04:29:47;9.38;;;4.60;;
45392;SDS011;31129;44.810;10.334;2022-07-23T04:32:13;7.30;;;4.20;;
45392;SDS011;31129;44.810;10.334;2022-07-23T04:34:39;9.68;;;4.35;;
45392;SDS011;31129;44.810;10.334;2022-07-23T04:37:04;10.35;;;3.83;;
45392;SDS011;31129;44.810;10.334;2022-07-23T04:39:31;8.05;;;4.63;;
45392;SDS011;31129;44.810;10.334;2022-07-23T04:41:57;11.45;;;4.05;;
45392;SDS011;31129;44.810;10.334;2022-07-23T04:44:23;10.73;;;4.47;;
45392;SDS011;31129;44.810;10.334;2022-07-23T04:46:48;15.30;;;4.13;;
45392;SDS011;31129;44.810;10.334;2022-07-23T04:49:14;13.73;;;5.38;;
45392;SDS011;31129;44.810;10.334;2022-07-23T04:51:40;18.48;;;4.70;;
45392;SDS011;31129;44.810;10.334;2022-07-23T04:54:05;18.08;;;4.75;;
45392;SDS011;31129;44.810;10.334;2022-07-23T04:56:31;11.60;;;5.40;;
45392;SDS011;31129;44.810;10.334;2022-07-23T04:58:57;10.23;;;5.18;;
45392;SDS011;31129;44.810;10.334;2022-07-23T05:01:22;8.63;;;4.50;;
45392;SDS011;31129;44.810;10.334;2022-07-23T05:03:48;10.60;;;5.05;;
45392;SDS011;31129;44.810;10.334;2022-07-23T05:06:14;21.05;;;5.57;;
45392;SDS011;31129;44.810;10.334;2022-07-23T05:08:40;9.82;;;4.90;;
45392;SDS011;31129;44.810;10.334;2022-07-23T05:11:08;16.77;;;4.78;;
45392;SDS011;31129;44.810;10.334;2022-07-23T05:13:33;11.15;;;5.05;;
45392;SDS011;31129;44.810;10.334;2022-07-23T05:15:59;14.63;;;4.80;;
45392;SDS011;31129;44.810;10.334;2022-07-23T05:18:25;14.20;;;5.13;;
45392;SDS011;31129;44.810;10.334;2022-07-23T05:20:50;8.45;;;4.45;;
45392;SDS011;31129;44.810;10.334;2022-07-23T05:23:19;10.95;;;4.75;;
45392;SDS011;31129;44.810;10.334;2022-07-23T05:25:46;14.18;;;5.10;;
45392;SDS011;31129;44.810;10.334;2022-07-23T05:28:12;13.32;;;4.82;;
45392;SDS011;31129;44.810;10.334;2022-07-23T05:30:37;9.02;;;4.25;;
45392;SDS011;31129;44.810;10.334;2022-07-23T05:33:06;11.23;;;4.65;;
45392;SDS011;31129;44.810;10.334;2022-07-23T05:35:33;13.85;;;6.07;;
45392;SDS011;31129;44.810;10.334;2022-07-23T05:38:21;10.70;;;4.65;;
45392;SDS011;31129;44.810;10.334;2022-07-23T05:40:47;13.93;;;4.45;;
45392;SDS011;31129;44.810;10.334;2022-07-23T05:43:13;8.63;;;5.03;;
45392;SDS011;31129;44.810;10.334;2022-07-23T05:45:39;8.70;;;4.07;;
45392;SDS011;31129;44.810;10.334;2022-07-23T05:48:04;10.75;;;5.28;;
45392;SDS011;31129;44.810;10.334;2022-07-23T05:50:35;8.45;;;4.45;;
45392;SDS011;31129;44.810;10.334;2022-07-23T05:53:09;17.42;;;5.07;;
45392;SDS011;31129;44.810;10.334;2022-07-23T05:55:55;14.10;;;4.50;;
45392;SDS011;31129;44.810;10.334;2022-07-23T05:58:21;11.77;;;4.18;;
45392;SDS011;31129;44.810;10.334;2022-07-23T06:00:46;9.27;;;4.78;;
45392;SDS011;31129;44.810;10.334;2022-07-23T06:03:12;12.70;;;4.63;;
45392;SDS011;31129;44.810;10.334;2022-07-23T06:05:37;12.82;;;4.40;;
45392;SDS011;31129;44.810;10.334;2022-07-23T06:08:04;11.98;;;4.68;;
45392;SDS011;31129;44.810;10.334;2022-07-23T06:10:30;12.38;;;4.47;;
45392;SDS011;31129;44.810;10.334;2022-07-23T06:12:56;8.60;;;4.35;;
45392;SDS011;31129;44.810;10.334;2022-07-23T06:15:22;9.77;;;4.47;;
45392;SDS011;31129;44.810;10.334;2022-07-23T06:17:48;16.00;;;4.32;;
45392;SDS011;31129;44.810;10.334;2022-07-23T06:20:14;12.55;;;4.82;;
45392;SDS011;31129;44.810;10.334;2022-07-23T06:22:40;12.85;;;4.75;;
45392;SDS011;31129;44.810;10.334;2022-07-23T06:25:06;14.48;;;4.00;;
45392;SDS011;31129;44.810;10.334;2022-07-23T06:27:32;13.65;;;4.70;;
45392;SDS011;31129;44.810;10.334;2022-07-23T06:29:57;10.10;;;4.32;;
45392;SDS011;31129;44.810;10.334;2022-07-23T06:32:23;14.75;;;4.88;;
45392;SDS011;31129;44.810;10.334;2022-07-23T06:34:48;7.55;;;4.07;;
45392;SDS011;31129;44.810;10.334;2022-07-23T06:37:14;10.98;;;5.10;;
45392;SDS011;31129;44.810;10.334;2022-07-23T06:39:40;12.30;;;4.10;;
45392;SDS011;31129;44.810;10.334;2022-07-23T06:42:06;10.43;;;4.75;;
45392;SDS011;31129;44.810;10.334;2022-07-23T06:44:37;15.25;;;4.38;;
45392;SDS011;31129;44.810;10.334;2022-07-23T06:47:02;9.25;;;5.15;;
45392;SDS011;31129;44.810;10.334;2022-07-23T06:49:29;21.52;;;4.25;;
45392;SDS011;31129;44.810;10.334;2022-07-23T06:51:56;13.18;;;4.97;;
45392;SDS011;31129;44.810;10.334;2022-07-23T06:54:22;8.55;;;3.90;;
45392;SDS011;31129;44.810;10.334;2022-07-23T06:56:47;13.35;;;4.03;;
45392;SDS011;31129;44.810;10.334;2022-07-23T06:59:14;9.70;;;4.60;;
45392;SDS011;31129;44.810;10.334;2022-07-23T07:01:41;15.25;;;4.43;;
45392;SDS011;31129;44.810;10.334;2022-07-23T07:04:06;15.10;;;5.00;;
45392;SDS011;31129;44.810;10.334;2022-07-23T07:06:32;17.15;;;4.47;;
45392;SDS011;31129;44.810;10.334;2022-07-23T07:08:57;9.18;;;4.38;;
45392;SDS011;31129;44.810;10.334;2022-07-23T07:11:26;12.35;;;5.28;;
45392;SDS011;31129;44.810;10.334;2022-07-23T07:13:51;14.10;;;4.85;;
45392;SDS011;31129;44.810;10.334;2022-07-23T07:16:17;25.65;;;5.00;;
45392;SDS011;31129;44.810;10.334;2022-07-23T07:18:43;13.52;;;4.55;;
45392;SDS011;31129;44.810;10.334;2022-07-23T07:21:08;18.45;;;4.93;;
45392;SDS011;31129;44.810;10.334;2022-07-23T07:23:34;16.10;;;5.57;;
45392;SDS011;31129;44.810;10.334;2022-07-23T07:25:59;18.65;;;5.55;;
45392;SDS011;31129;44.810;10.334;2022-07-23T07:28:25;24.33;;;6.53;;
45392;SDS011;31129;44.810;10.334;2022-07-23T07:30:51;29.25;;;5.68;;
45392;SDS011;31129;44.810;10.334;2022-07-23T07:33:16;16.45;;;5.40;;
45392;SDS011;31129;44.810;10.334;2022-07-23T07:35:42;11.75;;;5.95;;
45392;SDS011;31129;44.810;10.334;2022-07-23T07:38:07;7.93;;;5.80;;
45392;SDS011;31129;44.810;10.334;2022-07-23T07:40:33;14.63;;;6.57;;
45392;SDS011;31129;44.810;10.334;2022-07-23T07:42:59;20.85;;;7.00;;
45392;SDS011;31129;44.810;10.334;2022-07-23T07:45:25;19.88;;;7.20;;
45392;SDS011;31129;44.810;10.334;2022-07-23T07:47:51;16.00;;;6.68;;
45392;SDS011;31129;44.810;10.334;2022-07-23T07:50:17;26.00;;;6.07;;
45392;SDS011;31129;44.810;10.334;2022-07-23T07:52:44;19.35;;;6.15;;
45392;SDS011;31129;44.810;10.334;2022-07-23T07:55:09;25.80;;;7.38;;
45392;SDS011;31129;44.810;10.334;2022-07-23T07:57:36;20.45;;;7.07;;
45392;SDS011;31129;44.810;10.334;2022-07-23T08:00:02;17.25;;;6.75;;
45392;SDS011;31129;44.810;10.334;2022-07-23T08:02:41;17.38;;;7.18;;
45392;SDS011;31129;44.810;10.334;2022-07-23T08:05:06;17.13;;;7.05;;
45392;SDS011;31129;44.810;10.334;2022-07-23T08:07:32;11.00;;;6.53;;
45392;SDS011;31129;44.810;10.334;2022-07-23T08:09:58;17.63;;;6.97;;
45392;SDS011;31129;44.810;10.334;2022-07-23T08:12:23;21.27;;;7.38;;
45392;SDS011;31129;44.810;10.334;2022-07-23T08:14:52;23.13;;;6.72;;
45392;SDS011;31129;44.810;10.334;2022-07-23T08:17:18;17.88;;;7.07;;
45392;SDS011;31129;44.810;10.334;2022-07-23T08:19:43;23.40;;;7.28;;
45392;SDS011;31129;44.810;10.334;2022-07-23T08:22:09;17.30;;;6.88;;
45392;SDS011;31129;44.810;10.334;2022-07-23T08:24:34;16.00;;;6.22;;
45392;SDS011;31129;44.810;10.334;2022-07-23T08:26:59;14.90;;;6.80;;
45392;SDS011;31129;44.810;10.334;2022-07-23T08:29:25;19.90;;;7.03;;
45392;SDS011;31129;44.810;10.334;2022-07-23T08:31:50;23.25;;;7.40;;
45392;SDS011;31129;44.810;10.334;2022-07-23T08:34:16;13.88;;;7.05;;
45392;SDS011;31129;44.810;10.334;2022-07-23T08:36:41;11.52;;;6.40;;
45392;SDS011;31129;44.810;10.334;2022-07-23T08:39:07;19.08;;;6.82;;
45392;SDS011;31129;44.810;10.334;2022-07-23T08:41:32;16.92;;;7.10;;
45392;SDS011;31129;44.810;10.334;2022-07-23T08:43:59;9.75;;;6.90;;
45392;SDS011;31129;44.810;10.334;2022-07-23T08:46:26;13.45;;;6.93;;
45392;SDS011;31129;44.810;10.334;2022-07-23T08:48:52;11.73;;;7.70;;
45392;SDS011;31129;44.810;10.334;2022-07-23T08:51:19;15.57;;;7.32;;
45392;SDS011;31129;44.810;10.334;2022-07-23T08:53:45;14.15;;;6.90;;
45392;SDS011;31129;44.810;10.334;2022-07-23T08:56:12;21.90;;;8.02;;
45392;SDS011;31129;44.810;10.334;2022-07-23T08:58:39;17.88;;;7.28;;
45392;SDS011;31129;44.810;10.334;2022-07-23T09:01:04;16.08;;;7.38;;
45392;SDS011;31129;44.810;10.334;2022-07-23T09:03:31;15.15;;;7.60;;
45392;SDS011;31129;44.810;10.334;2022-07-23T09:05:58;16.58;;;7.57;;
45392;SDS011;31129;44.810;10.334;2022-07-23T09:08:47;22.65;;;8.07;;
45392;SDS011;31129;44.810;10.334;2022-07-23T09:11:13;20.77;;;7.80;;
45392;SDS011;31129;44.810;10.334;2022-07-23T09:16:14;12.90;;;7.07;;
45392;SDS011;31129;44.810;10.334;2022-07-23T09:21:17;12.55;;;7.03;;
45392;SDS011;31129;44.810;10.334;2022-07-23T09:26:20;19.95;;;7.80;;
45392;SDS011;31129;44.810;10.334;2022-07-23T09:31:23;16.08;;;7.90;;
45392;SDS011;31129;44.810;10.334;2022-07-23T09:33:49;21.52;;;8.25;;
45392;SDS011;31129;44.810;10.334;2022-07-23T09:36:15;18.38;;;6.95;;
45392;SDS011;31129;44.810;10.334;2022-07-23T09:38:50;15.20;;;7.57;;
45392;SDS011;31129;44.810;10.334;2022-07-23T09:41:16;26.95;;;7.88;;
45392;SDS011;31129;44.810;10.334;2022-07-23T09:43:41;21.40;;;7.57;;
45392;SDS011;31129;44.810;10.334;2022-07-23T09:46:17;10.98;;;7.25;;
45392;SDS011;31129;44.810;10.334;2022-07-23T09:48:48;15.95;;;7.30;;
45392;SDS011;31129;44.810;10.334;2022-07-23T09:51:14;23.90;;;7.40;;
45392;SDS011;31129;44.810;10.334;2022-07-23T09:53:43;11.25;;;7.40;;
45392;SDS011;31129;44.810;10.334;2022-07-23T09:56:09;15.05;;;6.93;;
45392;SDS011;31129;44.810;10.334;2022-07-23T09:58:39;9.70;;;6.28;;
45392;SDS011;31129;44.810;10.334;2022-07-23T10:01:15;18.30;;;6.85;;
45392;SDS011;31129;44.810;10.334;2022-07-23T10:03:41;17.27;;;6.75;;
45392;SDS011;31129;44.810;10.334;2022-07-23T10:06:32;12.15;;;6.70;;
45392;SDS011;31129;44.810;10.334;2022-07-23T10:09:22;13.38;;;7.45;;
45392;SDS011;31129;44.810;10.334;2022-07-23T10:12:16;13.00;;;7.18;;
45392;SDS011;31129;44.810;10.334;2022-07-23T10:15:01;7.13;;;6.10;;
45392;SDS011;31129;44.810;10.334;2022-07-23T10:17:29;12.73;;;6.30;;
45392;SDS011;31129;44.810;10.334;2022-07-23T10:19:55;12.65;;;6.68;;
45392;SDS011;31129;44.810;10.334;2022-07-23T10:22:22;14.45;;;6.80;;
45392;SDS011;31129;44.810;10.334;2022-07-23T10:25:04;9.52;;;6.60;;
45392;SDS011;31129;44.810;10.334;2022-07-23T10:30:47;24.33;;;6.90;;
45392;SDS011;31129;44.810;10.334;2022-07-23T10:41:51;10.38;;;6.15;;
45392;SDS011;31129;44.810;10.334;2022-07-23T10:44:18;10.57;;;5.63;;
45392;SDS011;31129;44.810;10.334;2022-07-23T10:46:54;11.55;;;5.88;;
45392;SDS011;31129;44.810;10.334;2022-07-23T10:49:31;9.70;;;6.00;;
45392;SDS011;31129;44.810;10.334;2022-07-23T10:54:42;15.48;;;6.07;;
45392;SDS011;31129;44.810;10.334;2022-07-23T10:57:09;15.57;;;6.82;;
45392;SDS011;31129;44.810;10.334;2022-07-23T11:02:28;13.93;;;6.63;;
45392;SDS011;31129;44.810;10.334;2022-07-23T11:04:58;13.15;;;6.38;;
45392;SDS011;31129;44.810;10.334;2022-07-23T11:07:26;14.10;;;6.97;;
45392;SDS011;31129;44.810;10.334;2022-07-23T11:09:52;9.48;;;5.93;;
45392;SDS011;31129;44.810;10.334;2022-07-23T11:17:25;10.77;;;5.50;;
45392;SDS011;31129;44.810;10.334;2022-07-23T11:20:12;11.70;;;6.23;;
45392;SDS011;31129;44.810;10.334;2022-07-23T11:25:10;11.85;;;6.35;;
45392;SDS011;31129;44.810;10.334;2022-07-23T11:27:40;12.80;;;6.57;;
45392;SDS011;31129;44.810;10.334;2022-07-23T11:30:08;9.95;;;6.07;;
45392;SDS011;31129;44.810;10.334;2022-07-23T11:32:36;9.50;;;5.63;;
45392;SDS011;31129;44.810;10.334;2022-07-23T11:35:23;12.48;;;5.80;;
45392;SDS011;31129;44.810;10.334;2022-07-23T11:37:54;14.18;;;6.55;;
45392;SDS011;31129;44.810;10.334;2022-07-23T11:40:28;12.90;;;6.13;;
45392;SDS011;31129;44.810;10.334;2022-07-23T11:42:55;10.43;;;6.30;;
45392;SDS011;31129;44.810;10.334;2022-07-23T11:45:24;7.95;;;5.53;;
45392;SDS011;31129;44.810;10.334;2022-07-23T11:47:55;8.65;;;5.68;;
45392;SDS011;31129;44.810;10.334;2022-07-23T11:50:32;11.07;;;5.85;;
45392;SDS011;31129;44.810;10.334;2022-07-23T11:52:58;12.60;;;6.50;;
45392;SDS011;31129;44.810;10.334;2022-07-23T11:55:24;19.33;;;6.15;;
45392;SDS011;31129;44.810;10.334;2022-07-23T11:57:51;16.33;;;6.43;;
45392;SDS011;31129;44.810;10.334;2022-07-23T12:00:19;14.30;;;5.90;;
45392;SDS011;31129;44.810;10.334;2022-07-23T12:02:52;13.07;;;6.32;;
45392;SDS011;31129;44.810;10.334;2022-07-23T12:05:20;11.23;;;5.68;;
45392;SDS011;31129;44.810;10.334;2022-07-23T12:07:48;11.90;;;6.65;;
45392;SDS011;31129;44.810;10.334;2022-07-23T12:10:28;9.60;;;5.95;;
45392;SDS011;31129;44.810;10.334;2022-07-23T12:12:57;15.75;;;6.40;;
45392;SDS011;31129;44.810;10.334;2022-07-23T12:15:33;13.38;;;6.30;;
45392;SDS011;31129;44.810;10.334;2022-07-23T12:18:04;12.18;;;6.15;;
45392;SDS011;31129;44.810;10.334;2022-07-23T12:20:42;7.95;;;6.28;;
45392;SDS011;31129;44.810;10.334;2022-07-23T12:23:13;21.65;;;7.22;;
45392;SDS011;31129;44.810;10.334;2022-07-23T12:25:46;14.50;;;6.70;;
45392;SDS011;31129;44.810;10.334;2022-07-23T12:31:17;12.27;;;6.40;;
45392;SDS011;31129;44.810;10.334;2022-07-23T12:33:51;13.60;;;7.30;;
45392;SDS011;31129;44.810;10.334;2022-07-23T12:36:20;8.68;;;5.75;;
45392;SDS011;31129;44.810;10.334;2022-07-23T12:39:03;13.48;;;6.32;;
45392;SDS011;31129;44.810;10.334;2022-07-23T12:41:49;14.60;;;7.25;;
45392;SDS011;31129;44.810;10.334;2022-07-23T12:44:16;14.63;;;7.45;;
45392;SDS011;31129;44.810;10.334;2022-07-23T12:46:42;19.35;;;7.45;;
45392;SDS011;31129;44.810;10.334;2022-07-23T12:49:24;10.23;;;7.15;;
45392;SDS011;31129;44.810;10.334;2022-07-23T12:51:56;17.23;;;7.57;;
45392;SDS011;31129;44.810;10.334;2022-07-23T12:54:29;13.88;;;7.32;;
45392;SDS011;31129;44.810;10.334;2022-07-23T12:56:54;12.27;;;6.55;;
45392;SDS011;31129;44.810;10.334;2022-07-23T12:59:20;17.48;;;6.82;;
45392;SDS011;31129;44.810;10.334;2022-07-23T13:02:08;17.70;;;6.80;;
45392;SDS011;31129;44.810;10.334;2022-07-23T13:04:33;13.15;;;6.80;;
45392;SDS011;31129;44.810;10.334;2022-07-23T13:07:00;10.60;;;7.22;;
45392;SDS011;31129;44.810;10.334;2022-07-23T13:09:30;11.15;;;6.90;;
45392;SDS011;31129;44.810;10.334;2022-07-23T13:12:03;13.88;;;7.18;;
45392;SDS011;31129;44.810;10.334;2022-07-23T13:14:32;9.90;;;6.45;;
45392;SDS011;31129;44.810;10.334;2022-07-23T13:16:58;12.43;;;6.63;;
45392;SDS011;31129;44.810;10.334;2022-07-23T13:19:24;9.88;;;7.05;;
45392;SDS011;31129;44.810;10.334;2022-07-23T13:21:53;13.75;;;6.15;;
45392;SDS011;31129;44.810;10.334;2022-07-23T13:24:20;11.13;;;7.13;;
45392;SDS011;31129;44.810;10.334;2022-07-23T13:26:46;13.40;;;6.13;;
45392;SDS011;31129;44.810;10.334;2022-07-23T13:29:14;12.57;;;6.78;;
45392;SDS011;31129;44.810;10.334;2022-07-23T13:31:40;11.10;;;6.55;;
45392;SDS011;31129;44.810;10.334;2022-07-23T13:34:06;13.77;;;7.20;;
45392;SDS011;31129;44.810;10.334;2022-07-23T13:36:32;13.70;;;6.80;;
45392;SDS011;31129;44.810;10.334;2022-07-23T13:38:58;17.63;;;6.57;;
45392;SDS011;31129;44.810;10.334;2022-07-23T13:41:23;15.60;;;6.53;;
45392;SDS011;31129;44.810;10.334;2022-07-23T13:43:49;16.43;;;7.00;;
45392;SDS011;31129;44.810;10.334;2022-07-23T13:46:15;14.67;;;6.73;;
45392;SDS011;31129;44.810;10.334;2022-07-23T13:48:41;8.87;;;6.53;;
45392;SDS011;31129;44.810;10.334;2022-07-23T13:51:08;16.50;;;6.37;;
45392;SDS011;31129;44.810;10.334;2022-07-23T13:53:36;18.95;;;6.78;;
45392;SDS011;31129;44.810;10.334;2022-07-23T13:56:05;19.38;;;6.60;;
45392;SDS011;31129;44.810;10.334;2022-07-23T13:58:31;12.30;;;6.60;;
45392;SDS011;31129;44.810;10.334;2022-07-23T14:00:57;10.77;;;6.70;;
45392;SDS011;31129;44.810;10.334;2022-07-23T14:03:26;11.57;;;6.15;;
45392;SDS011;31129;44.810;10.334;2022-07-23T14:05:52;8.90;;;6.85;;
45392;SDS011;31129;44.810;10.334;2022-07-23T14:08:18;11.00;;;6.40;;
45392;SDS011;31129;44.810;10.334;2022-07-23T14:10:47;18.42;;;6.47;;
45392;SDS011;31129;44.810;10.334;2022-07-23T14:13:13;11.70;;;6.77;;
45392;SDS011;31129;44.810;10.334;2022-07-23T14:15:39;11.00;;;6.57;;
45392;SDS011;31129;44.810;10.334;2022-07-23T14:18:07;12.02;;;6.45;;
45392;SDS011;31129;44.810;10.334;2022-07-23T14:20:33;10.27;;;6.63;;
45392;SDS011;31129;44.810;10.334;2022-07-23T14:23:02;15.35;;;6.10;;
45392;SDS011;31129;44.810;10.334;2022-07-23T14:25:28;14.43;;;7.90;;
45392;SDS011;31129;44.810;10.334;2022-07-23T14:27:54;21.53;;;6.90;;
45392;SDS011;31129;44.810;10.334;2022-07-23T14:30:20;14.13;;;6.67;;
45392;SDS011;31129;44.810;10.334;2022-07-23T14:32:48;10.77;;;5.95;;
45392;SDS011;31129;44.810;10.334;2022-07-23T14:35:18;12.00;;;6.70;;
45392;SDS011;31129;44.810;10.334;2022-07-23T14:37:47;19.33;;;6.05;;
45392;SDS011;31129;44.810;10.334;2022-07-23T14:40:13;10.30;;;6.20;;
45392;SDS011;31129;44.810;10.334;2022-07-23T14:42:39;12.45;;;5.85;;
45392;SDS011;31129;44.810;10.334;2022-07-23T14:45:05;13.07;;;6.63;;
45392;SDS011;31129;44.810;10.334;2022-07-23T14:49:57;12.07;;;5.73;;
45392;SDS011;31129;44.810;10.334;2022-07-23T14:52:23;10.80;;;6.23;;
45392;SDS011;31129;44.810;10.334;2022-07-23T14:54:49;8.77;;;5.53;;
45392;SDS011;31129;44.810;10.334;2022-07-23T14:57:14;16.70;;;6.03;;
45392;SDS011;31129;44.810;10.334;2022-07-23T14:59:40;11.07;;;6.53;;
45392;SDS011;31129;44.810;10.334;2022-07-23T15:02:09;11.15;;;4.00;;
45392;SDS011;31129;44.810;10.334;2022-07-23T15:04:35;11.50;;;3.97;;
45392;SDS011;31129;44.810;10.334;2022-07-23T15:07:00;9.90;;;3.80;;
45392;SDS011;31129;44.810;10.334;2022-07-23T15:09:27;12.65;;;4.18;;
45392;SDS011;31129;44.810;10.334;2022-07-23T15:11:53;12.23;;;4.63;;